sensor_id;sensor_type;location;lat;lon;timestamp;pressure;altitude;pressure_sealevel;temperature;humidity
56721;BME280;53183;47.412;18.884;2023-03-04T00:00:12;99318.31;;;2.01;70.17
56721;BME280;53183;47.412;18.884;2023-03-04T00:02:40;99322.75;;;1.96;70.49
56721;BME280;53183;47.412;18.884;2023-03-04T00:05:07;99315.03;;;1.92;70.62
56721;BME280;53183;47.412;18.884;2023-03-04T00:07:35;99315.13;;;1.87;70.67
56721;BME280;53183;47.412;18.884;2023-03-04T00:10:03;99321.41;;;1.78;70.98
56721;BME280;53183;47.412;18.884;2023-03-04T00:12:30;99319.00;;;1.68;71.62
56721;BME280;53183;47.412;18.884;2023-03-04T00:14:57;99310.91;;;1.81;70.77
56721;BME280;53183;47.412;18.884;2023-03-04T00:17:25;99316.81;;;1.90;70.26
56721;BME280;53183;47.412;18.884;2023-03-04T00:19:52;99323.00;;;1.84;70.52
56721;BME280;53183;47.412;18.884;2023-03-04T00:22:19;99317.13;;;1.74;70.55
56721;BME280;53183;47.412;18.884;2023-03-04T00:24:47;99314.50;;;1.74;69.64
56721;BME280;53183;47.412;18.884;2023-03-04T00:27:14;99312.72;;;1.78;70.22
56721;BME280;53183;47.412;18.884;2023-03-04T00:29:41;99309.41;;;1.71;69.67
56721;BME280;53183;47.412;18.884;2023-03-04T00:32:08;99311.91;;;1.74;69.64
56721;BME280;53183;47.412;18.884;2023-03-04T00:34:36;99316.06;;;1.84;68.42
56721;BME280;53183;47.412;18.884;2023-03-04T00:37:03;99325.75;;;1.78;68.61
56721;BME280;53183;47.412;18.884;2023-03-04T00:39:30;99312.63;;;1.81;68.10
56721;BME280;53183;47.412;18.884;2023-03-04T00:41:57;99319.66;;;1.79;67.96
56721;BME280;53183;47.412;18.884;2023-03-04T00:44:24;99311.06;;;1.74;68.41
56721;BME280;53183;47.412;18.884;2023-03-04T00:46:52;99311.84;;;1.77;67.96
56721;BME280;53183;47.412;18.884;2023-03-04T00:49:19;99311.12;;;1.71;68.05
56721;BME280;53183;47.412;18.884;2023-03-04T00:51:46;99310.38;;;1.66;68.20
56721;BME280;53183;47.412;18.884;2023-03-04T00:54:14;99306.94;;;1.63;68.38
56721;BME280;53183;47.412;18.884;2023-03-04T00:56:41;99307.87;;;1.59;68.45
56721;BME280;53183;47.412;18.884;2023-03-04T00:59:09;99297.41;;;1.61;68.54
56721;BME280;53183;47.412;18.884;2023-03-04T01:01:38;99295.75;;;1.58;68.95
56721;BME280;53183;47.412;18.884;2023-03-04T01:04:06;99296.00;;;1.46;69.37
56721;BME280;53183;47.412;18.884;2023-03-04T01:06:33;99292.72;;;1.36;69.52
56721;BME280;53183;47.412;18.884;2023-03-04T01:09:01;99294.66;;;1.27;70.38
56721;BME280;53183;47.412;18.884;2023-03-04T01:11:29;99300.03;;;1.17;70.57
56721;BME280;53183;47.412;18.884;2023-03-04T01:13:56;99293.28;;;1.07;70.89
56721;BME280;53183;47.412;18.884;2023-03-04T01:16:26;99282.09;;;1.02;71.13
56721;BME280;53183;47.412;18.884;2023-03-04T01:18:53;99282.03;;;1.05;71.09
56721;BME280;53183;47.412;18.884;2023-03-04T01:21:20;99291.78;;;0.94;71.12
56721;BME280;53183;47.412;18.884;2023-03-04T01:23:47;99290.19;;;0.87;71.34
56721;BME280;53183;47.412;18.884;2023-03-04T01:26:15;99287.59;;;0.85;70.67
56721;BME280;53183;47.412;18.884;2023-03-04T01:28:42;99284.06;;;0.89;70.54
56721;BME280;53183;47.412;18.884;2023-03-04T01:31:09;99279.66;;;0.93;69.62
56721;BME280;53183;47.412;18.884;2023-03-04T01:33:37;99273.69;;;0.88;69.61
56721;BME280;53183;47.412;18.884;2023-03-04T01:36:04;99273.62;;;0.91;68.95
56721;BME280;53183;47.412;18.884;2023-03-04T01:38:31;99270.00;;;1.00;68.62
56721;BME280;53183;47.412;18.884;2023-03-04T01:41:00;99266.69;;;0.91;68.63
56721;BME280;53183;47.412;18.884;2023-03-04T01:43:28;99264.91;;;0.93;67.95
56721;BME280;53183;47.412;18.884;2023-03-04T01:45:57;99265.66;;;0.99;67.75
56721;BME280;53183;47.412;18.884;2023-03-04T01:48:28;99262.16;;;1.03;67.35
56721;BME280;53183;47.412;18.884;2023-03-04T01:50:57;99254.44;;;0.97;68.02
56721;BME280;53183;47.412;18.884;2023-03-04T01:53:31;99246.84;;;0.86;69.15
56721;BME280;53183;47.412;18.884;2023-03-04T01:56:11;99248.41;;;0.96;69.02
56721;BME280;53183;47.412;18.884;2023-03-04T01:58:38;99249.53;;;0.81;69.79
56721;BME280;53183;47.412;18.884;2023-03-04T02:01:05;99249.69;;;0.72;70.02
56721;BME280;53183;47.412;18.884;2023-03-04T02:03:34;99248.03;;;0.68;69.40
56721;BME280;53183;47.412;18.884;2023-03-04T02:06:01;99253.97;;;0.75;68.40
56721;BME280;53183;47.412;18.884;2023-03-04T02:08:28;99251.31;;;0.78;68.76
56721;BME280;53183;47.412;18.884;2023-03-04T02:10:56;99247.13;;;0.69;68.84
56721;BME280;53183;47.412;18.884;2023-03-04T02:13:42;99247.31;;;0.58;69.68
56721;BME280;53183;47.412;18.884;2023-03-04T02:16:09;99237.81;;;0.56;70.02
56721;BME280;53183;47.412;18.884;2023-03-04T02:18:36;99240.44;;;0.56;70.08
56721;BME280;53183;47.412;18.884;2023-03-04T02:26:53;99237.25;;;0.40;70.05
56721;BME280;53183;47.412;18.884;2023-03-04T02:29:21;99225.81;;;0.50;69.97
56721;BME280;53183;47.412;18.884;2023-03-04T02:31:50;99223.37;;;0.41;70.24
56721;BME280;53183;47.412;18.884;2023-03-04T02:34:23;99214.72;;;0.40;70.49
56721;BME280;53183;47.412;18.884;2023-03-04T02:36:53;99209.66;;;0.31;70.70
56721;BME280;53183;47.412;18.884;2023-03-04T02:41:53;99217.56;;;0.25;71.12
56721;BME280;53183;47.412;18.884;2023-03-04T02:44:27;99215.91;;;0.19;71.08
56721;BME280;53183;47.412;18.884;2023-03-04T02:46:57;99209.81;;;0.22;70.58
56721;BME280;53183;47.412;18.884;2023-03-04T02:49:27;99205.38;;;0.29;70.22
56721;BME280;53183;47.412;18.884;2023-03-04T02:52:02;99202.78;;;0.29;70.18
56721;BME280;53183;47.412;18.884;2023-03-04T02:54:30;99204.44;;;0.33;70.14
56721;BME280;53183;47.412;18.884;2023-03-04T02:57:05;99199.22;;;0.33;69.82
56721;BME280;53183;47.412;18.884;2023-03-04T02:59:34;99200.13;;;0.32;69.59
56721;BME280;53183;47.412;18.884;2023-03-04T03:02:02;99201.00;;;0.31;69.72
56721;BME280;53183;47.412;18.884;2023-03-04T03:04:29;99194.97;;;0.30;69.22
56721;BME280;53183;47.412;18.884;2023-03-04T03:06:57;99201.16;;;0.21;70.01
56721;BME280;53183;47.412;18.884;2023-03-04T03:09:24;99191.72;;;0.16;69.83
56721;BME280;53183;47.412;18.884;2023-03-04T03:11:51;99186.56;;;0.14;70.01
56721;BME280;53183;47.412;18.884;2023-03-04T03:14:19;99202.25;;;0.08;69.94
56721;BME280;53183;47.412;18.884;2023-03-04T03:16:46;99191.09;;;0.02;70.33
56721;BME280;53183;47.412;18.884;2023-03-04T03:19:13;99193.87;;;-0.11;70.48
56721;BME280;53183;47.412;18.884;2023-03-04T03:21:40;99192.09;;;-0.07;70.46
56721;BME280;53183;47.412;18.884;2023-03-04T03:24:07;99193.91;;;-0.14;70.55
56721;BME280;53183;47.412;18.884;2023-03-04T03:26:35;99186.97;;;-0.13;70.66
56721;BME280;53183;47.412;18.884;2023-03-04T03:29:02;99188.81;;;-0.18;70.60
56721;BME280;53183;47.412;18.884;2023-03-04T03:31:29;99185.28;;;-0.13;70.53
56721;BME280;53183;47.412;18.884;2023-03-04T03:33:56;99179.13;;;-0.09;70.19
56721;BME280;53183;47.412;18.884;2023-03-04T03:36:24;99181.03;;;-0.18;70.63
56721;BME280;53183;47.412;18.884;2023-03-04T03:38:51;99176.59;;;-0.12;70.17
56721;BME280;53183;47.412;18.884;2023-03-04T03:41:18;99168.84;;;-0.15;70.61
56721;BME280;53183;47.412;18.884;2023-03-04T03:43:45;99172.28;;;-0.13;70.45
56721;BME280;53183;47.412;18.884;2023-03-04T03:46:13;99175.69;;;-0.11;70.10
56721;BME280;53183;47.412;18.884;2023-03-04T03:48:40;99174.12;;;-0.19;70.82
56721;BME280;53183;47.412;18.884;2023-03-04T03:51:07;99165.47;;;-0.21;71.10
56721;BME280;53183;47.412;18.884;2023-03-04T03:53:34;99163.75;;;-0.21;71.03
56721;BME280;53183;47.412;18.884;2023-03-04T03:56:01;99163.00;;;-0.29;71.59
56721;BME280;53183;47.412;18.884;2023-03-04T03:58:29;99168.00;;;-0.17;71.04
56721;BME280;53183;47.412;18.884;2023-03-04T04:00:56;99171.56;;;-0.24;71.39
56721;BME280;53183;47.412;18.884;2023-03-04T04:03:24;99175.91;;;-0.25;72.15
56721;BME280;53183;47.412;18.884;2023-03-04T04:05:52;99174.25;;;-0.29;72.53
56721;BME280;53183;47.412;18.884;2023-03-04T04:08:19;99176.94;;;-0.35;73.19
56721;BME280;53183;47.412;18.884;2023-03-04T04:10:46;99171.69;;;-0.32;73.41
56721;BME280;53183;47.412;18.884;2023-03-04T04:13:13;99173.41;;;-0.29;73.36
56721;BME280;53183;47.412;18.884;2023-03-04T04:15:41;99166.47;;;-0.29;73.85
56721;BME280;53183;47.412;18.884;2023-03-04T04:18:08;99169.19;;;-0.38;73.96
56721;BME280;53183;47.412;18.884;2023-03-04T04:20:35;99164.81;;;-0.34;73.92
56721;BME280;53183;47.412;18.884;2023-03-04T04:23:03;99161.34;;;-0.35;74.31
56721;BME280;53183;47.412;18.884;2023-03-04T04:25:31;99157.81;;;-0.29;74.15
56721;BME280;53183;47.412;18.884;2023-03-04T04:27:58;99157.00;;;-0.33;74.41
56721;BME280;53183;47.412;18.884;2023-03-04T04:30:25;99156.16;;;-0.35;74.95
56721;BME280;53183;47.412;18.884;2023-03-04T04:32:52;99151.81;;;-0.34;75.14
56721;BME280;53183;47.412;18.884;2023-03-04T04:35:20;99145.75;;;-0.32;75.35
56721;BME280;53183;47.412;18.884;2023-03-04T04:37:47;99148.19;;;-0.22;75.33
56721;BME280;53183;47.412;18.884;2023-03-04T04:40:14;99149.09;;;-0.27;75.59
56721;BME280;53183;47.412;18.884;2023-03-04T04:42:42;99146.47;;;-0.24;75.68
56721;BME280;53183;47.412;18.884;2023-03-04T04:45:10;99143.72;;;-0.14;75.33
56721;BME280;53183;47.412;18.884;2023-03-04T04:47:37;99148.16;;;-0.19;75.29
56721;BME280;53183;47.412;18.884;2023-03-04T04:50:05;99148.16;;;-0.21;75.75
56721;BME280;53183;47.412;18.884;2023-03-04T04:52:32;99151.88;;;-0.36;76.72
56721;BME280;53183;47.412;18.884;2023-03-04T04:54:59;99150.13;;;-0.37;76.94
56721;BME280;53183;47.412;18.884;2023-03-04T04:57:26;99144.94;;;-0.37;77.58
56721;BME280;53183;47.412;18.884;2023-03-04T04:59:53;99143.41;;;-0.50;78.46
56721;BME280;53183;47.412;18.884;2023-03-04T05:02:21;99144.22;;;-0.47;78.76
56721;BME280;53183;47.412;18.884;2023-03-04T05:04:48;99151.22;;;-0.52;79.29
56721;BME280;53183;47.412;18.884;2023-03-04T05:07:15;99152.03;;;-0.48;79.47
56721;BME280;53183;47.412;18.884;2023-03-04T05:09:43;99153.78;;;-0.49;79.86
56721;BME280;53183;47.412;18.884;2023-03-04T05:12:10;99155.63;;;-0.57;80.59
56721;BME280;53183;47.412;18.884;2023-03-04T05:14:38;99150.47;;;-0.58;81.07
56721;BME280;53183;47.412;18.884;2023-03-04T05:17:05;99149.53;;;-0.53;80.99
56721;BME280;53183;47.412;18.884;2023-03-04T05:19:32;99153.91;;;-0.59;81.64
56721;BME280;53183;47.412;18.884;2023-03-04T05:21:59;99147.94;;;-0.66;82.11
56721;BME280;53183;47.412;18.884;2023-03-04T05:24:26;99144.50;;;-0.66;82.37
56721;BME280;53183;47.412;18.884;2023-03-04T05:26:54;99149.59;;;-0.60;82.30
56721;BME280;53183;47.412;18.884;2023-03-04T05:29:21;99153.00;;;-0.57;82.81
56721;BME280;53183;47.412;18.884;2023-03-04T05:31:48;99147.87;;;-0.58;82.83
56721;BME280;53183;47.412;18.884;2023-03-04T05:34:15;99150.38;;;-0.54;82.82
56721;BME280;53183;47.412;18.884;2023-03-04T05:36:43;99147.78;;;-0.52;82.93
56721;BME280;53183;47.412;18.884;2023-03-04T05:39:10;99163.34;;;-0.52;83.34
56721;BME280;53183;47.412;18.884;2023-03-04T05:41:37;99162.41;;;-0.48;83.13
56721;BME280;53183;47.412;18.884;2023-03-04T05:44:05;99168.50;;;-0.49;83.52
56721;BME280;53183;47.412;18.884;2023-03-04T05:46:32;99170.13;;;-0.43;83.34
56721;BME280;53183;47.412;18.884;2023-03-04T05:48:59;99182.91;;;-0.28;82.99
56721;BME280;53183;47.412;18.884;2023-03-04T05:51:27;99180.16;;;-0.19;82.75
56721;BME280;53183;47.412;18.884;2023-03-04T05:53:54;99177.63;;;-0.22;82.92
56721;BME280;53183;47.412;18.884;2023-03-04T05:56:21;99187.75;;;-0.05;82.59
56721;BME280;53183;47.412;18.884;2023-03-04T05:58:48;99187.97;;;0.32;81.56
56721;BME280;53183;47.412;18.884;2023-03-04T06:01:16;99191.22;;;0.45;80.48
56721;BME280;53183;47.412;18.884;2023-03-04T06:03:44;99193.87;;;0.42;80.62
56721;BME280;53183;47.412;18.884;2023-03-04T06:06:11;99188.25;;;0.66;80.12
56721;BME280;53183;47.412;18.884;2023-03-04T06:08:38;99189.69;;;0.81;79.57
56721;BME280;53183;47.412;18.884;2023-03-04T06:11:05;99195.25;;;1.08;78.44
56721;BME280;53183;47.412;18.884;2023-03-04T06:13:33;99192.22;;;1.28;77.23
56721;BME280;53183;47.412;18.884;2023-03-04T06:16:00;99202.22;;;1.48;76.74
56721;BME280;53183;47.412;18.884;2023-03-04T06:18:28;99194.91;;;1.65;75.91
56721;BME280;53183;47.412;18.884;2023-03-04T06:20:59;99203.38;;;1.75;75.46
56721;BME280;53183;47.412;18.884;2023-03-04T06:23:28;99203.06;;;1.87;74.70
56721;BME280;53183;47.412;18.884;2023-03-04T06:25:57;99209.41;;;2.14;74.16
56721;BME280;53183;47.412;18.884;2023-03-04T06:28:25;99204.44;;;2.39;72.81
56721;BME280;53183;47.412;18.884;2023-03-04T06:30:54;99211.97;;;3.15;70.67
56721;BME280;53183;47.412;18.884;2023-03-04T06:33:22;99212.66;;;3.51;68.03
56721;BME280;53183;47.412;18.884;2023-03-04T06:35:53;99217.25;;;4.01;66.28
56721;BME280;53183;47.412;18.884;2023-03-04T06:38:21;99213.72;;;4.82;63.20
56721;BME280;53183;47.412;18.884;2023-03-04T06:40:49;99222.63;;;4.76;62.77
56721;BME280;53183;47.412;18.884;2023-03-04T06:43:18;99214.69;;;5.28;61.59
56721;BME280;53183;47.412;18.884;2023-03-04T06:45:45;99221.19;;;4.92;61.70
56721;BME280;53183;47.412;18.884;2023-03-04T06:48:13;99213.44;;;4.89;62.85
56721;BME280;53183;47.412;18.884;2023-03-04T06:50:40;99216.81;;;5.16;61.25
56721;BME280;53183;47.412;18.884;2023-03-04T06:53:07;99223.75;;;6.11;58.15
56721;BME280;53183;47.412;18.884;2023-03-04T06:55:34;99225.34;;;5.94;58.92
56721;BME280;53183;47.412;18.884;2023-03-04T06:58:01;99220.41;;;5.84;58.99
56721;BME280;53183;47.412;18.884;2023-03-04T07:00:29;99220.78;;;6.41;57.67
56721;BME280;53183;47.412;18.884;2023-03-04T07:02:57;99221.22;;;6.93;55.95
56721;BME280;53183;47.412;18.884;2023-03-04T07:05:25;99220.06;;;7.59;54.29
56721;BME280;53183;47.412;18.884;2023-03-04T07:07:52;99219.72;;;7.47;53.90
56721;BME280;53183;47.412;18.884;2023-03-04T07:10:20;99219.25;;;7.19;55.57
56721;BME280;53183;47.412;18.884;2023-03-04T07:12:47;99216.31;;;7.83;53.63
56721;BME280;53183;47.412;18.884;2023-03-04T07:15:14;99218.56;;;7.91;52.85
56721;BME280;53183;47.412;18.884;2023-03-04T07:17:41;99212.75;;;7.84;53.88
56721;BME280;53183;47.412;18.884;2023-03-04T07:20:09;99215.22;;;7.68;54.09
56721;BME280;53183;47.412;18.884;2023-03-04T07:22:36;99216.66;;;7.38;55.28
56721;BME280;53183;47.412;18.884;2023-03-04T07:25:05;99211.88;;;7.46;54.50
56721;BME280;53183;47.412;18.884;2023-03-04T07:27:32;99213.22;;;7.92;54.11
56721;BME280;53183;47.412;18.884;2023-03-04T07:29:59;99214.28;;;8.07;53.23
56721;BME280;53183;47.412;18.884;2023-03-04T07:32:27;99207.69;;;7.80;54.07
56721;BME280;53183;47.412;18.884;2023-03-04T07:34:54;99212.31;;;7.56;55.47
56721;BME280;53183;47.412;18.884;2023-03-04T07:37:21;99212.09;;;8.34;53.35
56721;BME280;53183;47.412;18.884;2023-03-04T07:39:48;99202.00;;;8.79;51.75
56721;BME280;53183;47.412;18.884;2023-03-04T07:42:15;99213.47;;;8.95;51.76
56721;BME280;53183;47.412;18.884;2023-03-04T07:44:44;99207.19;;;8.63;52.53
56721;BME280;53183;47.412;18.884;2023-03-04T07:47:11;99212.53;;;8.61;52.45
56721;BME280;53183;47.412;18.884;2023-03-04T07:49:38;99203.09;;;8.92;51.85
56721;BME280;53183;47.412;18.884;2023-03-04T07:52:05;99211.78;;;8.59;51.96
56721;BME280;53183;47.412;18.884;2023-03-04T07:54:33;99211.13;;;8.72;52.35
56721;BME280;53183;47.412;18.884;2023-03-04T07:57:00;99215.56;;;8.71;52.09
56721;BME280;53183;47.412;18.884;2023-03-04T07:59:27;99214.16;;;8.81;52.67
56721;BME280;53183;47.412;18.884;2023-03-04T08:01:55;99205.88;;;8.35;54.23
56721;BME280;53183;47.412;18.884;2023-03-04T08:04:22;99205.31;;;8.11;53.57
56721;BME280;53183;47.412;18.884;2023-03-04T08:06:49;99206.63;;;7.84;55.70
56721;BME280;53183;47.412;18.884;2023-03-04T08:09:17;99215.69;;;8.14;53.85
56721;BME280;53183;47.412;18.884;2023-03-04T08:11:45;99212.06;;;8.17;53.67
56721;BME280;53183;47.412;18.884;2023-03-04T08:14:12;99207.00;;;8.12;54.35
56721;BME280;53183;47.412;18.884;2023-03-04T08:16:40;99204.34;;;7.76;54.29
56721;BME280;53183;47.412;18.884;2023-03-04T08:19:08;99203.31;;;7.80;53.84
56721;BME280;53183;47.412;18.884;2023-03-04T08:21:36;99201.81;;;7.74;54.58
56721;BME280;53183;47.412;18.884;2023-03-04T08:24:04;99203.72;;;7.90;54.15
56721;BME280;53183;47.412;18.884;2023-03-04T08:26:41;99205.31;;;8.11;53.03
56721;BME280;53183;47.412;18.884;2023-03-04T08:29:12;99206.91;;;7.96;53.84
56721;BME280;53183;47.412;18.884;2023-03-04T08:31:41;99208.94;;;8.09;52.90
56721;BME280;53183;47.412;18.884;2023-03-04T08:34:09;99205.19;;;8.32;51.15
56721;BME280;53183;47.412;18.884;2023-03-04T08:36:36;99204.56;;;8.27;51.98
56721;BME280;53183;47.412;18.884;2023-03-04T08:39:04;99205.81;;;8.37;52.10
56721;BME280;53183;47.412;18.884;2023-03-04T08:41:31;99212.19;;;8.33;51.24
56721;BME280;53183;47.412;18.884;2023-03-04T08:43:59;99202.28;;;8.19;52.30
56721;BME280;53183;47.412;18.884;2023-03-04T08:46:27;99206.56;;;8.21;52.36
56721;BME280;53183;47.412;18.884;2023-03-04T08:48:55;99207.75;;;7.97;51.49
56721;BME280;53183;47.412;18.884;2023-03-04T08:51:22;99203.75;;;8.07;52.35
56721;BME280;53183;47.412;18.884;2023-03-04T08:53:50;99204.88;;;8.20;52.43
56721;BME280;53183;47.412;18.884;2023-03-04T08:56:17;99204.28;;;8.33;51.54
56721;BME280;53183;47.412;18.884;2023-03-04T08:58:44;99198.91;;;8.53;50.91
56721;BME280;53183;47.412;18.884;2023-03-04T09:01:13;99190.50;;;8.45;50.59
56721;BME280;53183;47.412;18.884;2023-03-04T09:03:40;99189.38;;;8.51;50.36
56721;BME280;53183;47.412;18.884;2023-03-04T09:06:10;99191.16;;;8.50;51.01
56721;BME280;53183;47.412;18.884;2023-03-04T09:08:38;99187.13;;;8.60;50.63
56721;BME280;53183;47.412;18.884;2023-03-04T09:11:05;99183.91;;;8.36;50.96
56721;BME280;53183;47.412;18.884;2023-03-04T09:13:32;99198.00;;;8.35;50.47
56721;BME280;53183;47.412;18.884;2023-03-04T09:16:00;99189.28;;;8.16;50.87
56721;BME280;53183;47.412;18.884;2023-03-04T09:18:27;99191.06;;;8.15;51.90
56721;BME280;53183;47.412;18.884;2023-03-04T09:20:54;99183.03;;;8.18;51.89
56721;BME280;53183;47.412;18.884;2023-03-04T09:23:22;99181.06;;;8.58;50.82
56721;BME280;53183;47.412;18.884;2023-03-04T09:25:49;99174.34;;;8.70;49.66
56721;BME280;53183;47.412;18.884;2023-03-04T09:28:17;99178.59;;;8.73;50.61
56721;BME280;53183;47.412;18.884;2023-03-04T09:30:45;99184.59;;;8.59;50.93
56721;BME280;53183;47.412;18.884;2023-03-04T09:33:13;99179.63;;;8.70;51.29
56721;BME280;53183;47.412;18.884;2023-03-04T09:35:40;99178.84;;;8.51;51.69
56721;BME280;53183;47.412;18.884;2023-03-04T09:38:08;99180.22;;;8.75;51.55
56721;BME280;53183;47.412;18.884;2023-03-04T09:40:42;99175.50;;;8.82;51.54
56721;BME280;53183;47.412;18.884;2023-03-04T09:43:11;99171.97;;;8.65;51.69
56721;BME280;53183;47.412;18.884;2023-03-04T09:45:46;99169.06;;;8.70;51.44
56721;BME280;53183;47.412;18.884;2023-03-04T09:48:17;99166.72;;;8.81;50.16
56721;BME280;53183;47.412;18.884;2023-03-04T09:53:34;99165.69;;;9.01;50.93
56721;BME280;53183;47.412;18.884;2023-03-04T09:56:06;99153.34;;;9.19;51.23
56721;BME280;53183;47.412;18.884;2023-03-04T09:59:10;99158.03;;;8.97;50.57
56721;BME280;53183;47.412;18.884;2023-03-04T10:01:47;99145.09;;;8.92;50.96
56721;BME280;53183;47.412;18.884;2023-03-04T10:06:46;99152.75;;;9.30;49.04
56721;BME280;53183;47.412;18.884;2023-03-04T10:11:59;99141.09;;;9.34;49.70
56721;BME280;53183;47.412;18.884;2023-03-04T10:14:58;99150.75;;;9.18;49.79
56721;BME280;53183;47.412;18.884;2023-03-04T10:17:37;99136.16;;;9.44;49.58
56721;BME280;53183;47.412;18.884;2023-03-04T10:20:18;99140.41;;;9.30;49.54
56721;BME280;53183;47.412;18.884;2023-03-04T10:22:47;99138.13;;;9.40;50.06
56721;BME280;53183;47.412;18.884;2023-03-04T10:25:27;99135.75;;;9.35;50.17
56721;BME280;53183;47.412;18.884;2023-03-04T10:28:05;99126.75;;;9.55;50.20
56721;BME280;53183;47.412;18.884;2023-03-04T10:33:22;99124.34;;;9.67;49.55
56721;BME280;53183;47.412;18.884;2023-03-04T10:38:34;99114.06;;;9.78;48.92
56721;BME280;53183;47.412;18.884;2023-03-04T10:41:14;99108.16;;;9.73;49.53
56721;BME280;53183;47.412;18.884;2023-03-04T10:43:42;99112.19;;;9.64;48.70
56721;BME280;53183;47.412;18.884;2023-03-04T10:46:14;99108.16;;;9.73;48.52
56721;BME280;53183;47.412;18.884;2023-03-04T10:48:42;99099.91;;;9.95;47.56
56721;BME280;53183;47.412;18.884;2023-03-04T10:51:20;99101.44;;;10.13;47.51
56721;BME280;53183;47.412;18.884;2023-03-04T10:53:50;99086.87;;;10.22;46.05
56721;BME280;53183;47.412;18.884;2023-03-04T11:04:41;99084.03;;;9.65;46.16
56721;BME280;53183;47.412;18.884;2023-03-04T11:07:09;99080.91;;;9.88;45.87
56721;BME280;53183;47.412;18.884;2023-03-04T11:09:37;99083.84;;;10.14;44.89
56721;BME280;53183;47.412;18.884;2023-03-04T11:12:12;99091.72;;;9.83;44.38
56721;BME280;53183;47.412;18.884;2023-03-04T11:14:45;99074.19;;;9.82;44.63
56721;BME280;53183;47.412;18.884;2023-03-04T11:19:46;99084.59;;;9.70;45.20
56721;BME280;53183;47.412;18.884;2023-03-04T11:22:16;99069.22;;;9.62;44.86
56721;BME280;53183;47.412;18.884;2023-03-04T11:25:04;99070.16;;;9.61;44.53
56721;BME280;53183;47.412;18.884;2023-03-04T11:27:46;99071.16;;;9.58;45.30
56721;BME280;53183;47.412;18.884;2023-03-04T11:33:02;99073.19;;;9.85;43.82
56721;BME280;53183;47.412;18.884;2023-03-04T11:38:46;99045.12;;;9.98;43.86
56721;BME280;53183;47.412;18.884;2023-03-04T11:41:24;99051.75;;;10.05;43.71
56721;BME280;53183;47.412;18.884;2023-03-04T11:43:54;99050.53;;;10.11;43.36
56721;BME280;53183;47.412;18.884;2023-03-04T12:00:58;99015.06;;;10.01;43.98
56721;BME280;53183;47.412;18.884;2023-03-04T12:15:08;99010.22;;;10.23;44.35
56721;BME280;53183;47.412;18.884;2023-03-04T12:23:52;99001.25;;;10.26;44.74
56721;BME280;53183;47.412;18.884;2023-03-04T12:26:23;98983.88;;;10.07;45.56
56721;BME280;53183;47.412;18.884;2023-03-04T12:32:12;98987.63;;;10.03;46.27
56721;BME280;53183;47.412;18.884;2023-03-04T12:43:55;98976.00;;;10.65;46.14
56721;BME280;53183;47.412;18.884;2023-03-04T12:55:07;98972.41;;;10.51;47.06
56721;BME280;53183;47.412;18.884;2023-03-04T12:57:36;98967.28;;;10.20;48.33
56721;BME280;53183;47.412;18.884;2023-03-04T13:08:35;98969.94;;;10.63;47.99
56721;BME280;53183;47.412;18.884;2023-03-04T13:14:00;98944.41;;;10.63;48.25
56721;BME280;53183;47.412;18.884;2023-03-04T13:16:32;98935.84;;;10.87;48.42
56721;BME280;53183;47.412;18.884;2023-03-04T13:19:02;98934.50;;;10.94;46.96
56721;BME280;53183;47.412;18.884;2023-03-04T13:21:30;98932.06;;;10.91;46.23
56721;BME280;53183;47.412;18.884;2023-03-04T13:24:00;98933.09;;;10.88;45.11
56721;BME280;53183;47.412;18.884;2023-03-04T13:26:47;98930.56;;;10.87;44.35
56721;BME280;53183;47.412;18.884;2023-03-04T13:32:01;98919.19;;;10.99;43.17
56721;BME280;53183;47.412;18.884;2023-03-04T13:34:55;98910.34;;;11.00;42.68
56721;BME280;53183;47.412;18.884;2023-03-04T13:37:32;98907.81;;;11.11;41.90
56721;BME280;53183;47.412;18.884;2023-03-04T13:42:53;98905.09;;;11.13;40.30
56721;BME280;53183;47.412;18.884;2023-03-04T13:45:37;98899.31;;;10.93;40.80
56721;BME280;53183;47.412;18.884;2023-03-04T13:48:30;98899.78;;;10.86;41.61
56721;BME280;53183;47.412;18.884;2023-03-04T13:50:59;98897.63;;;11.05;41.42
56721;BME280;53183;47.412;18.884;2023-03-04T13:53:41;98884.22;;;11.08;40.98
56721;BME280;53183;47.412;18.884;2023-03-04T13:56:34;98873.56;;;11.10;39.62
56721;BME280;53183;47.412;18.884;2023-03-04T14:04:34;98861.88;;;11.26;38.48
56721;BME280;53183;47.412;18.884;2023-03-04T14:07:24;98866.00;;;11.31;38.23
56721;BME280;53183;47.412;18.884;2023-03-04T14:12:47;98851.75;;;11.06;38.16
56721;BME280;53183;47.412;18.884;2023-03-04T14:15:20;98864.81;;;10.95;39.12
56721;BME280;53183;47.412;18.884;2023-03-04T14:17:50;98858.59;;;10.96;39.52
56721;BME280;53183;47.412;18.884;2023-03-04T14:20:28;98849.66;;;10.84;40.31
56721;BME280;53183;47.412;18.884;2023-03-04T14:22:58;98857.47;;;10.86;40.22
56721;BME280;53183;47.412;18.884;2023-03-04T14:25:27;98849.78;;;10.83;40.42
56721;BME280;53183;47.412;18.884;2023-03-04T14:28:09;98856.31;;;10.77;40.26
56721;BME280;53183;47.412;18.884;2023-03-04T14:30:42;98861.59;;;10.63;40.79
56721;BME280;53183;47.412;18.884;2023-03-04T14:33:23;98853.28;;;10.69;39.83
56721;BME280;53183;47.412;18.884;2023-03-04T14:35:54;98853.69;;;10.63;40.10
56721;BME280;53183;47.412;18.884;2023-03-04T14:38:32;98862.56;;;10.62;40.69
56721;BME280;53183;47.412;18.884;2023-03-04T14:41:09;98845.91;;;10.47;40.30
56721;BME280;53183;47.412;18.884;2023-03-04T14:43:55;98854.75;;;10.46;40.61
56721;BME280;53183;47.412;18.884;2023-03-04T14:46:29;98847.28;;;10.52;40.08
56721;BME280;53183;47.412;18.884;2023-03-04T14:48:58;98847.22;;;10.40;39.84
56721;BME280;53183;47.412;18.884;2023-03-04T14:51:36;98851.19;;;10.32;40.32
56721;BME280;53183;47.412;18.884;2023-03-04T14:54:05;98845.47;;;10.26;40.21
56721;BME280;53183;47.412;18.884;2023-03-04T14:56:34;98842.31;;;10.19;39.79
56721;BME280;53183;47.412;18.884;2023-03-04T14:59:02;98829.81;;;10.37;38.72
56721;BME280;53183;47.412;18.884;2023-03-04T15:01:35;98833.16;;;10.39;38.60
56721;BME280;53183;47.412;18.884;2023-03-04T15:04:10;98830.53;;;10.39;37.96
56721;BME280;53183;47.412;18.884;2023-03-04T15:06:53;98821.97;;;10.36;37.71